createdAt,value
2023-04-23T00:01:30.106Z,13.65
2023-04-23T00:03:58.534Z,12.15
2023-04-23T00:06:26.834Z,9.57
2023-04-23T00:08:55.316Z,9.50
2023-04-23T00:11:22.536Z,10.63
2023-04-23T00:13:49.997Z,9.73
2023-04-23T00:16:19.262Z,8.63
2023-04-23T00:18:46.553Z,11.57
2023-04-23T00:21:14.255Z,11.77
2023-04-23T00:23:41.622Z,10.93
2023-04-23T00:26:08.561Z,11.10
2023-04-23T00:28:35.638Z,10.27
2023-04-23T00:31:02.626Z,9.57
2023-04-23T00:33:32.715Z,11.68
2023-04-23T00:35:59.872Z,11.18
2023-04-23T00:38:27.088Z,12.25
2023-04-23T00:40:54.335Z,11.65
2023-04-23T00:43:21.906Z,9.45
2023-04-23T00:45:49.341Z,12.05
2023-04-23T00:48:16.853Z,10.73
2023-04-23T00:50:43.926Z,11.60
2023-04-23T00:53:10.902Z,10.70
2023-04-23T00:55:38.124Z,10.93
2023-04-23T00:58:06.756Z,10.05
2023-04-23T01:00:42.115Z,10.77
2023-04-23T01:03:10.602Z,15.45
2023-04-23T01:05:37.768Z,10.25
2023-04-23T01:08:04.930Z,10.65
2023-04-23T01:10:33.047Z,10.63
2023-04-23T01:13:00.210Z,10.82
2023-04-23T01:15:27.557Z,9.65
2023-04-23T01:17:54.895Z,13.50
2023-04-23T01:20:22.108Z,11.73
2023-04-23T01:22:49.067Z,13.75
2023-04-23T01:25:16.118Z,11.75
2023-04-23T01:27:43.780Z,14.68
2023-04-23T01:30:11.478Z,10.98
2023-04-23T01:32:39.269Z,9.60
2023-04-23T01:35:07.366Z,10.90
2023-04-23T01:37:35.914Z,10.18
2023-04-23T01:40:03.042Z,9.88
2023-04-23T01:42:30.245Z,13.10
2023-04-23T01:44:57.952Z,9.00
2023-04-23T01:47:25.496Z,11.57
2023-04-23T01:49:52.648Z,9.30
2023-04-23T01:52:19.794Z,9.75
2023-04-23T01:54:46.909Z,12.15
2023-04-23T01:57:14.042Z,13.95
2023-04-23T01:59:42.758Z,12.25
2023-04-23T02:02:13.946Z,11.25
2023-04-23T02:04:44.857Z,9.52
2023-04-23T02:07:12.209Z,9.07
2023-04-23T02:09:39.911Z,9.77
2023-04-23T02:12:06.886Z,9.45
2023-04-23T02:14:33.833Z,10.02
2023-04-23T02:17:01.260Z,9.10
2023-04-23T02:19:28.214Z,9.30
2023-04-23T02:21:55.634Z,9.65
2023-04-23T02:24:22.756Z,10.30
2023-04-23T02:26:49.683Z,8.88
2023-04-23T02:29:16.957Z,11.65
2023-04-23T02:31:44.009Z,12.93
2023-04-23T02:34:11.222Z,10.43
2023-04-23T02:36:39.398Z,13.07
2023-04-23T02:39:07.053Z,10.90
2023-04-23T02:41:34.018Z,15.25
2023-04-23T02:44:01.209Z,14.23
2023-04-23T02:46:28.172Z,10.90
2023-04-23T02:48:55.443Z,16.05
2023-04-23T02:51:22.638Z,12.13
2023-04-23T02:53:49.682Z,10.65
2023-04-23T02:56:16.906Z,11.95
2023-04-23T02:58:44.210Z,12.95
2023-04-23T03:01:11.532Z,16.45
2023-04-23T03:03:38.896Z,15.30
2023-04-23T03:06:06.980Z,13.32
2023-04-23T03:08:34.294Z,12.98
2023-04-23T03:11:01.350Z,13.65
2023-04-23T03:13:28.527Z,17.60
2023-04-23T03:15:56.076Z,14.27
2023-04-23T03:18:23.304Z,11.95
2023-04-23T03:20:53.371Z,15.95
2023-04-23T03:23:20.308Z,16.40
2023-04-23T03:25:48.330Z,14.95
2023-04-23T03:28:15.534Z,14.52
2023-04-23T03:30:43.020Z,12.95
2023-04-23T03:33:10.223Z,13.63
2023-04-23T03:35:37.683Z,13.32
2023-04-23T03:38:09.227Z,13.43
2023-04-23T03:40:36.886Z,15.00
2023-04-23T03:43:06.105Z,16.33
2023-04-23T03:45:51.740Z,15.70
2023-04-23T03:48:21.763Z,14.00
2023-04-23T03:50:49.696Z,12.13
2023-04-23T03:53:30.603Z,15.98
2023-04-23T03:56:16.271Z,15.25
2023-04-23T04:01:20.028Z,12.57
2023-04-23T04:03:47.193Z,12.88
2023-04-23T04:06:16.031Z,13.00
2023-04-23T04:08:43.190Z,13.88
2023-04-23T04:11:10.316Z,16.50
2023-04-23T04:13:37.332Z,15.55
2023-04-23T04:16:04.770Z,12.52
2023-04-23T04:18:31.954Z,17.05
2023-04-23T04:20:59.060Z,17.80
2023-04-23T04:23:26.838Z,13.65
2023-04-23T04:25:56.609Z,14.10
2023-04-23T04:28:25.224Z,13.68
2023-04-23T04:30:57.951Z,12.88
2023-04-23T04:33:25.804Z,13.57
2023-04-23T04:35:52.877Z,15.25
2023-04-23T04:38:19.938Z,15.27
2023-04-23T04:40:46.874Z,13.93
2023-04-23T04:43:13.701Z,13.35
2023-04-23T04:45:40.648Z,14.65
2023-04-23T04:48:07.826Z,15.05
2023-04-23T04:50:35.581Z,14.52
2023-04-23T04:53:02.744Z,17.35
2023-04-23T04:55:29.571Z,19.05
2023-04-23T04:57:56.698Z,16.38
2023-04-23T05:00:29.620Z,13.75
2023-04-23T05:02:58.683Z,15.30
2023-04-23T05:05:27.626Z,15.52
2023-04-23T05:07:54.907Z,19.77
2023-04-23T05:10:22.287Z,20.60
2023-04-23T05:12:52.018Z,19.30
2023-04-23T05:15:19.117Z,14.57
2023-04-23T05:17:46.528Z,14.80
2023-04-23T05:20:14.589Z,17.83
2023-04-23T05:22:42.721Z,15.00
2023-04-23T05:25:11.947Z,15.07
2023-04-23T05:27:39.871Z,14.25
2023-04-23T05:30:10.618Z,20.45
2023-04-23T05:32:38.413Z,16.38
2023-04-23T05:35:07.469Z,14.00
2023-04-23T05:37:34.659Z,12.80
2023-04-23T05:40:02.749Z,13.80
2023-04-23T05:42:29.948Z,14.18
2023-04-23T05:44:56.967Z,15.38
2023-04-23T05:47:24.204Z,21.52
2023-04-23T05:49:51.113Z,13.18
2023-04-23T05:52:19.451Z,16.08
2023-04-23T05:54:46.617Z,11.70
2023-04-23T05:57:13.839Z,12.60
2023-04-23T05:59:40.875Z,17.55
2023-04-23T06:02:09.816Z,13.95
2023-04-23T06:04:38.104Z,11.80
2023-04-23T06:07:05.657Z,12.88
2023-04-23T06:09:32.703Z,10.20
2023-04-23T06:11:59.774Z,13.50
2023-04-23T06:14:26.844Z,12.23
2023-04-23T06:16:53.714Z,9.80
2023-04-23T06:19:20.803Z,9.10
2023-04-23T06:21:47.745Z,9.82
2023-04-23T06:24:14.866Z,9.07
2023-04-23T06:26:41.881Z,15.25
2023-04-23T06:29:15.003Z,10.73
2023-04-23T06:32:08.480Z,9.23
2023-04-23T06:34:35.641Z,9.45
2023-04-23T06:37:02.870Z,10.85
2023-04-23T06:39:30.045Z,9.88
2023-04-23T06:41:58.100Z,9.40
2023-04-23T06:44:44.382Z,8.65
2023-04-23T06:47:11.743Z,9.98
2023-04-23T06:49:40.958Z,10.50
2023-04-23T06:52:08.069Z,10.25
2023-04-23T06:54:35.140Z,11.45
2023-04-23T06:57:02.209Z,9.77
2023-04-23T06:59:29.111Z,11.57
2023-04-23T07:01:57.892Z,8.85
2023-04-23T07:04:25.091Z,12.40
2023-04-23T07:06:52.011Z,12.82
2023-04-23T07:09:19.061Z,10.23
2023-04-23T07:11:46.498Z,8.20
2023-04-23T07:14:13.676Z,8.55
2023-04-23T07:16:40.930Z,9.23
2023-04-23T07:19:09.330Z,7.25
2023-04-23T07:21:36.375Z,10.30
2023-04-23T07:24:07.320Z,11.23
2023-04-23T07:26:35.788Z,7.97
2023-04-23T07:29:05.077Z,8.00
2023-04-23T07:31:31.915Z,7.95
2023-04-23T07:33:58.981Z,5.50
2023-04-23T07:36:26.601Z,6.13
2023-04-23T07:38:53.630Z,7.97
2023-04-23T07:41:20.876Z,4.95
2023-04-23T07:43:47.801Z,5.78
2023-04-23T07:46:14.994Z,10.40
2023-04-23T07:48:42.040Z,15.38
2023-04-23T07:51:09.806Z,6.60
2023-04-23T07:53:36.979Z,7.78
2023-04-23T07:56:04.024Z,9.38
2023-04-23T07:58:33.074Z,8.82
2023-04-23T08:01:00.269Z,8.45
2023-04-23T08:03:29.308Z,8.40
2023-04-23T08:05:57.017Z,9.35
2023-04-23T08:08:24.341Z,7.72
2023-04-23T08:10:51.533Z,9.50
2023-04-23T08:13:18.578Z,9.98
2023-04-23T08:15:45.626Z,8.18
2023-04-23T08:18:12.859Z,8.00
2023-04-23T08:20:40.083Z,7.65
2023-04-23T08:23:07.436Z,7.43
2023-04-23T08:25:34.676Z,7.55
2023-04-23T08:28:02.314Z,10.18
2023-04-23T08:30:29.438Z,6.38
2023-04-23T08:32:57.157Z,8.75
2023-04-23T08:35:24.804Z,10.23
2023-04-23T08:37:51.928Z,7.90
2023-04-23T08:40:19.132Z,8.75
2023-04-23T08:43:03.978Z,8.25
2023-04-23T08:45:31.350Z,10.13
2023-04-23T08:48:02.931Z,8.02
2023-04-23T08:50:32.018Z,11.65
2023-04-23T08:52:59.166Z,9.77
2023-04-23T08:55:26.621Z,9.00
2023-04-23T08:57:55.932Z,8.10
2023-04-23T09:00:26.439Z,7.38
2023-04-23T09:02:54.280Z,8.93
2023-04-23T09:05:21.618Z,9.98
2023-04-23T09:07:48.576Z,8.18
2023-04-23T09:10:18.445Z,6.50
2023-04-23T09:12:46.832Z,7.70
2023-04-23T09:15:14.429Z,8.55
2023-04-23T09:17:46.182Z,6.28
2023-04-23T09:20:14.819Z,6.70
2023-04-23T09:22:50.663Z,5.22
2023-04-23T09:25:20.568Z,7.72
2023-04-23T09:27:52.667Z,8.35
2023-04-23T09:30:20.286Z,7.53
2023-04-23T09:32:48.124Z,6.38
2023-04-23T09:35:22.452Z,7.65
2023-04-23T09:37:52.837Z,6.82
2023-04-23T09:40:23.470Z,5.90
2023-04-23T09:42:55.578Z,6.45
2023-04-23T09:45:25.312Z,6.10
2023-04-23T09:47:57.468Z,10.23
2023-04-23T09:50:39.887Z,5.68
2023-04-23T09:53:08.900Z,6.28
2023-04-23T09:55:43.121Z,5.60
2023-04-23T09:58:16.059Z,3.88
2023-04-23T10:00:44.482Z,4.53
2023-04-23T10:03:12.060Z,2.65
2023-04-23T10:05:56.224Z,3.00
2023-04-23T10:08:28.474Z,1.85
2023-04-23T10:11:06.643Z,1.92
2023-04-23T10:13:41.507Z,2.30
2023-04-23T10:16:21.260Z,1.75
2023-04-23T10:18:52.223Z,3.25
2023-04-23T10:21:20.798Z,3.80
2023-04-23T10:23:50.166Z,2.13
2023-04-23T10:26:18.510Z,3.03
2023-04-23T10:28:49.057Z,2.10
2023-04-23T10:31:16.569Z,2.40
2023-04-23T10:33:56.123Z,3.03
2023-04-23T10:36:27.467Z,2.75
2023-04-23T10:38:58.282Z,2.03
2023-04-23T10:41:36.423Z,2.80
2023-04-23T10:44:05.850Z,2.80
2023-04-23T10:46:37.083Z,3.03
2023-04-23T10:49:17.220Z,4.50
2023-04-23T10:54:19.816Z,3.63
2023-04-23T10:56:58.661Z,3.28
2023-04-23T10:59:26.711Z,4.70
2023-04-23T11:01:53.813Z,4.63
2023-04-23T11:04:28.635Z,4.80
2023-04-23T11:07:10.921Z,5.03
2023-04-23T11:09:41.019Z,4.45
2023-04-23T11:12:11.827Z,3.50
2023-04-23T11:14:45.403Z,3.65
2023-04-23T11:17:14.283Z,2.80
2023-04-23T11:19:43.522Z,2.47
2023-04-23T11:22:16.775Z,3.30
2023-04-23T11:24:47.217Z,4.10
2023-04-23T11:27:18.310Z,6.40
2023-04-23T11:29:46.783Z,5.32
2023-04-23T11:32:17.013Z,5.28
2023-04-23T11:34:46.964Z,4.25
2023-04-23T11:37:15.430Z,8.73
2023-04-23T11:39:44.988Z,7.00
2023-04-23T11:42:13.233Z,6.82
2023-04-23T11:44:42.967Z,7.82
2023-04-23T11:47:13.632Z,9.10
2023-04-23T11:49:43.220Z,7.55
2023-04-23T11:52:12.182Z,7.47
2023-04-23T11:54:41.737Z,8.15
2023-04-23T11:57:08.930Z,7.70
2023-04-23T11:59:36.085Z,5.97
2023-04-23T12:02:03.308Z,6.38
2023-04-23T12:04:32.154Z,6.43
2023-04-23T12:06:59.844Z,4.97
2023-04-23T12:09:29.123Z,5.47
2023-04-23T12:11:58.486Z,4.70
2023-04-23T12:14:30.990Z,4.97
2023-04-23T12:17:09.442Z,3.85
2023-04-23T12:19:37.108Z,3.67
2023-04-23T12:22:05.153Z,4.20
2023-04-23T12:24:47.476Z,3.42
2023-04-23T12:27:16.676Z,3.03
2023-04-23T12:29:44.049Z,4.25
2023-04-23T12:32:12.239Z,5.60
2023-04-23T12:34:55.480Z,5.28
2023-04-23T12:37:28.352Z,5.22
2023-04-23T12:39:56.795Z,3.55
2023-04-23T12:42:24.257Z,3.65
2023-04-23T12:44:51.698Z,2.67
2023-04-23T12:47:21.742Z,4.28
2023-04-23T12:49:53.733Z,2.95
2023-04-23T12:52:21.519Z,3.13
2023-04-23T12:54:52.598Z,3.58
2023-04-23T12:57:23.411Z,1.95
2023-04-23T12:59:51.011Z,2.10
2023-04-23T13:02:18.163Z,1.33
2023-04-23T13:04:45.465Z,0.82
2023-04-23T13:07:12.457Z,2.55
2023-04-23T13:09:39.419Z,1.42
2023-04-23T13:12:06.486Z,1.08
2023-04-23T13:14:33.563Z,0.88
2023-04-23T13:17:01.018Z,1.27
2023-04-23T13:19:27.920Z,1.25
2023-04-23T13:21:54.906Z,1.13
2023-04-23T13:24:21.712Z,1.30
2023-04-23T13:26:48.901Z,1.20
2023-04-23T13:29:16.090Z,1.02
2023-04-23T13:31:43.253Z,2.05
2023-04-23T13:34:10.353Z,0.77
2023-04-23T13:36:37.800Z,1.20
2023-04-23T13:39:05.519Z,1.13
2023-04-23T13:41:32.575Z,1.38
2023-04-23T13:44:00.403Z,1.98
2023-04-23T13:46:27.964Z,1.40
2023-04-23T13:48:54.944Z,2.92
2023-04-23T13:51:34.040Z,3.25
2023-04-23T13:54:05.873Z,1.80
2023-04-23T13:56:33.102Z,2.28
2023-04-23T14:01:32.340Z,2.47
2023-04-23T14:03:59.343Z,4.32
2023-04-23T14:06:27.535Z,2.20
2023-04-23T14:08:54.760Z,3.03
2023-04-23T14:11:22.595Z,3.38
2023-04-23T14:13:49.602Z,2.15
2023-04-23T14:16:17.562Z,1.92
2023-04-23T14:18:45.699Z,3.55
2023-04-23T14:21:14.924Z,2.90
2023-04-23T14:23:47.909Z,1.45
2023-04-23T14:29:33.178Z,1.60
2023-04-23T14:32:00.699Z,1.83
2023-04-23T14:34:28.260Z,1.40
2023-04-23T14:36:55.486Z,1.70
2023-04-23T14:39:23.466Z,4.40
2023-04-23T14:41:50.493Z,1.88
2023-04-23T14:44:17.533Z,1.92
2023-04-23T14:46:44.556Z,2.50
2023-04-23T14:49:11.736Z,2.22
2023-04-23T14:51:39.016Z,3.45
2023-04-23T14:54:06.467Z,2.03
2023-04-23T14:56:33.491Z,1.33
2023-04-23T14:59:00.509Z,4.07
2023-04-23T15:01:27.897Z,2.03
2023-04-23T15:03:55.152Z,2.75
2023-04-23T15:06:23.227Z,2.30
2023-04-23T15:08:50.202Z,3.33
2023-04-23T15:11:17.524Z,2.38
2023-04-23T15:14:03.945Z,4.68
2023-04-23T15:19:06.566Z,1.67
2023-04-23T15:21:33.658Z,1.60
2023-04-23T15:24:00.724Z,1.80
2023-04-23T15:26:28.047Z,4.00
2023-04-23T15:28:55.932Z,2.42
2023-04-23T15:31:22.889Z,6.82
2023-04-23T15:33:50.002Z,1.67
2023-04-23T15:36:16.999Z,4.35
2023-04-23T15:38:44.129Z,1.83
2023-04-23T15:41:12.419Z,2.53
2023-04-23T15:43:39.738Z,2.47
2023-04-23T15:46:06.945Z,1.67
2023-04-23T15:48:34.289Z,1.83
2023-04-23T15:51:01.613Z,1.52
2023-04-23T15:53:29.110Z,1.27
2023-04-23T15:55:56.592Z,1.40
2023-04-23T15:58:23.681Z,1.60
2023-04-23T16:00:50.700Z,3.05
2023-04-23T16:03:17.870Z,1.38
2023-04-23T16:05:48.032Z,1.40
2023-04-23T16:08:16.277Z,1.40
2023-04-23T16:10:43.795Z,1.17
2023-04-23T16:13:11.071Z,2.53
2023-04-23T16:15:38.141Z,2.15
2023-04-23T16:18:06.083Z,1.85
2023-04-23T16:20:33.540Z,5.28
2023-04-23T16:23:01.362Z,2.55
2023-04-23T16:25:28.365Z,2.97
2023-04-23T16:27:56.268Z,1.92
2023-04-23T16:30:23.777Z,1.45
2023-04-23T16:32:51.185Z,3.75
2023-04-23T16:35:18.681Z,1.60
2023-04-23T16:37:45.872Z,1.77
2023-04-23T16:40:16.027Z,2.03
2023-04-23T16:42:43.977Z,3.30
2023-04-23T16:45:12.739Z,2.60
2023-04-23T16:47:39.777Z,2.00
2023-04-23T16:50:07.697Z,3.38
2023-04-23T16:52:35.072Z,2.78
2023-04-23T16:55:02.115Z,2.20
2023-04-23T16:57:29.784Z,3.85
2023-04-23T16:59:56.801Z,2.47
2023-04-23T17:02:23.939Z,1.42
2023-04-23T17:04:51.331Z,2.10
2023-04-23T17:07:18.451Z,3.08
2023-04-23T17:09:45.762Z,3.95
2023-04-23T17:12:12.681Z,2.72
2023-04-23T17:14:40.213Z,4.38
2023-04-23T17:17:07.427Z,2.53
2023-04-23T17:19:35.335Z,3.03
2023-04-23T17:22:03.290Z,2.05
2023-04-23T17:24:30.651Z,4.32
2023-04-23T17:26:57.799Z,2.28
2023-04-23T17:29:25.009Z,2.20
2023-04-23T17:31:52.136Z,2.40
2023-04-23T17:34:19.154Z,2.60
2023-04-23T17:36:46.335Z,4.63
2023-04-23T17:39:13.349Z,5.03
2023-04-23T17:41:40.519Z,2.63
2023-04-23T17:44:07.582Z,4.68
2023-04-23T17:46:34.630Z,9.70
2023-04-23T17:49:01.618Z,2.83
2023-04-23T17:51:28.754Z,3.05
2023-04-23T17:53:56.081Z,5.32
2023-04-23T17:56:23.815Z,3.00
2023-04-23T17:58:50.844Z,4.35
2023-04-23T18:01:17.913Z,4.90
2023-04-23T18:03:45.250Z,6.38
2023-04-23T18:06:12.676Z,5.53
2023-04-23T18:08:42.524Z,5.20
2023-04-23T18:11:10.707Z,6.28
2023-04-23T18:13:38.180Z,5.60
2023-04-23T18:16:05.309Z,6.25
2023-04-23T18:18:33.059Z,5.95
2023-04-23T18:21:02.829Z,5.60
2023-04-23T18:23:31.295Z,5.18
2023-04-23T18:26:01.582Z,6.35
2023-04-23T18:28:29.202Z,5.25
2023-04-23T18:31:02.126Z,5.05
2023-04-23T18:33:43.103Z,4.50
2023-04-23T18:36:34.204Z,4.45
2023-04-23T18:39:01.228Z,4.13
2023-04-23T18:41:31.086Z,5.45
2023-04-23T18:44:00.192Z,5.90
2023-04-23T18:46:28.935Z,6.47
2023-04-23T18:49:06.953Z,6.22
2023-04-23T18:51:45.763Z,6.13
2023-04-23T18:54:17.592Z,7.57
2023-04-23T18:56:45.495Z,9.50
2023-04-23T18:59:12.807Z,7.63
2023-04-23T19:01:40.663Z,10.15
2023-04-23T19:04:07.967Z,6.43
2023-04-23T19:06:35.117Z,9.93
2023-04-23T19:09:02.371Z,7.80
2023-04-23T19:11:34.057Z,9.50
2023-04-23T19:14:02.027Z,11.00
2023-04-23T19:16:29.032Z,8.35
2023-04-23T19:18:56.422Z,10.45
2023-04-23T19:21:23.355Z,10.07
2023-04-23T19:23:53.951Z,9.07
2023-04-23T19:26:20.983Z,10.85
2023-04-23T19:28:47.891Z,11.10
2023-04-23T19:31:15.219Z,10.32
2023-04-23T19:33:45.224Z,10.73
2023-04-23T19:36:12.357Z,9.38
2023-04-23T19:38:39.819Z,10.85
2023-04-23T19:41:07.705Z,10.52
2023-04-23T19:43:35.039Z,12.15
2023-04-23T19:46:02.119Z,11.55
2023-04-23T19:48:29.213Z,9.63
2023-04-23T19:50:56.144Z,10.07
2023-04-23T19:53:23.198Z,15.50
2023-04-23T19:55:50.400Z,10.15
2023-04-23T19:58:18.734Z,11.18
2023-04-23T20:00:46.076Z,8.70
2023-04-23T20:03:13.244Z,10.45
2023-04-23T20:05:42.146Z,13.05
2023-04-23T20:08:15.180Z,9.05
2023-04-23T20:10:43.352Z,9.45
2023-04-23T20:13:10.330Z,9.13
2023-04-23T20:15:37.557Z,12.65
2023-04-23T20:18:05.435Z,11.55
2023-04-23T20:20:33.917Z,15.05
2023-04-23T20:23:00.814Z,11.25
2023-04-23T20:25:27.720Z,9.85
2023-04-23T20:27:56.810Z,9.90
2023-04-23T20:30:24.248Z,10.63
2023-04-23T20:32:51.518Z,9.00
2023-04-23T20:35:18.581Z,9.85
2023-04-23T20:37:46.112Z,10.60
2023-04-23T20:40:14.382Z,9.43
2023-04-23T20:42:42.368Z,10.48
2023-04-23T20:45:13.013Z,9.75
2023-04-23T20:47:40.116Z,10.00
2023-04-23T20:50:08.271Z,9.07
2023-04-23T20:52:36.113Z,10.13
2023-04-23T20:55:03.355Z,8.88
2023-04-23T20:57:30.310Z,11.80
2023-04-23T20:59:57.224Z,11.23
2023-04-23T21:02:24.861Z,11.07
2023-04-23T21:04:51.963Z,8.90
2023-04-23T21:07:20.055Z,8.15
2023-04-23T21:09:47.228Z,7.72
2023-04-23T21:12:14.897Z,9.00
2023-04-23T21:14:42.432Z,8.45
2023-04-23T21:17:09.465Z,7.35
2023-04-23T21:19:36.655Z,11.25
2023-04-23T21:22:03.628Z,6.93
2023-04-23T21:24:30.878Z,7.35
2023-04-23T21:26:58.012Z,6.38
2023-04-23T21:29:26.404Z,6.10
2023-04-23T21:31:53.734Z,6.00
2023-04-23T21:34:21.637Z,7.90
2023-04-23T21:36:49.380Z,10.15
2023-04-23T21:39:16.383Z,6.45
2023-04-23T21:41:45.035Z,7.85
2023-04-23T21:44:12.140Z,8.30
2023-04-23T21:46:39.175Z,9.65
2023-04-23T21:49:07.086Z,6.85
2023-04-23T21:51:37.147Z,5.95
2023-04-23T21:54:08.248Z,7.15
2023-04-23T21:56:36.039Z,6.75
2023-04-23T21:59:03.051Z,7.50
2023-04-23T22:01:32.493Z,11.20
2023-04-23T22:04:01.824Z,5.97
2023-04-23T22:06:29.474Z,6.38
2023-04-23T22:08:57.471Z,7.28
2023-04-23T22:11:24.442Z,6.30
2023-04-23T22:13:51.490Z,7.10
2023-04-23T22:16:28.629Z,9.13
2023-04-23T22:18:57.583Z,4.45
2023-04-23T22:21:24.611Z,5.20
2023-04-23T22:23:51.812Z,6.00
2023-04-23T22:26:19.181Z,6.22
2023-04-23T22:28:46.507Z,5.65
2023-04-23T22:31:13.567Z,4.60
2023-04-23T22:33:40.522Z,4.25
2023-04-23T22:36:07.455Z,8.25
2023-04-23T22:38:34.925Z,6.22
2023-04-23T22:41:02.482Z,7.35
2023-04-23T22:43:29.394Z,9.35
2023-04-23T22:45:56.481Z,4.82
2023-04-23T22:48:23.850Z,7.53
2023-04-23T22:50:51.595Z,8.18
2023-04-23T22:53:19.423Z,4.80
2023-04-23T22:55:46.851Z,5.45
2023-04-23T22:58:13.987Z,7.00
2023-04-23T23:00:41.092Z,6.53
2023-04-23T23:03:08.313Z,6.00
2023-04-23T23:05:38.006Z,6.63
2023-04-23T23:08:05.091Z,5.50
2023-04-23T23:10:32.483Z,4.30
2023-04-23T23:12:59.831Z,5.35
2023-04-23T23:15:26.845Z,6.78
2023-04-23T23:17:53.942Z,5.18
2023-04-23T23:20:21.277Z,4.57
2023-04-23T23:22:48.302Z,5.57
2023-04-23T23:25:16.272Z,5.40
2023-04-23T23:27:43.318Z,4.95
2023-04-23T23:30:10.730Z,7.13
2023-04-23T23:32:38.225Z,5.53
2023-04-23T23:35:06.330Z,5.43
2023-04-23T23:37:33.350Z,4.90
2023-04-23T23:40:00.593Z,4.55
2023-04-23T23:42:27.898Z,4.10
2023-04-23T23:44:54.819Z,5.38
2023-04-23T23:47:22.001Z,7.47
2023-04-23T23:49:48.993Z,4.35
2023-04-23T23:52:16.202Z,4.30
2023-04-23T23:54:43.343Z,5.45
2023-04-23T23:57:10.955Z,4.82
2023-04-23T23:59:38.089Z,4.13
